N855JD KORD-KDSM
Flight info
| Callsign | N855JD |
|---|---|
| Flight time | 1h 1m |
| Altitude | 17500 |
| Route | OLINN OREOS OBENE |
| Aircraft | TBM9/L-SDFGRWY/S |
Departure
| Time | 2026-05-04 01:54 |
|---|---|
| Airport | Chicago O'Hare International Airport (KORD) |
Arrival
| Time | 2026-05-04 02:56 |
|---|---|
| Airport | Des Moines International Airport (KDSM) |
| Time | Latitude | Longitude | Altitude | Speed | Heading |
|---|---|---|---|---|---|
| 2026-05-04 01:54 | 42.10698 | -88.19011 | 7449 ft | 196 kts | 267° |
| 2026-05-04 01:54 | 42.10553 | -88.20834 | 7798 ft | 197 kts | 267° |
| 2026-05-04 01:55 | 42.10403 | -88.22671 | 8152 ft | 197 kts | 267° |
| 2026-05-04 01:55 | 42.10256 | -88.24507 | 8508 ft | 198 kts | 267° |
| 2026-05-04 01:55 | 42.10106 | -88.26358 | 8871 ft | 199 kts | 268° |
| 2026-05-04 01:55 | 42.09957 | -88.28214 | 9236 ft | 200 kts | 268° |
| 2026-05-04 01:56 | 42.09805 | -88.30086 | 9610 ft | 203 kts | 268° |
| 2026-05-04 01:56 | 42.09651 | -88.31995 | 9952 ft | 207 kts | 268° |
| 2026-05-04 01:56 | 42.09494 | -88.33932 | 10298 ft | 209 kts | 268° |
| 2026-05-04 01:56 | 42.09335 | -88.35889 | 10641 ft | 211 kts | 268° |
| 2026-05-04 01:57 | 42.09176 | -88.37834 | 10980 ft | 212 kts | 268° |
| 2026-05-04 01:57 | 42.09013 | -88.39810 | 11328 ft | 213 kts | 268° |
| 2026-05-04 01:57 | 42.08850 | -88.41800 | 11684 ft | 214 kts | 268° |
| 2026-05-04 01:57 | 42.08681 | -88.43790 | 12040 ft | 214 kts | 268° |
| 2026-05-04 01:58 | 42.08520 | -88.45787 | 12402 ft | 214 kts | 268° |
| 2026-05-04 01:58 | 42.08359 | -88.47768 | 12765 ft | 211 kts | 268° |
| 2026-05-04 01:58 | 42.08250 | -88.49065 | 13010 ft | 209 kts | 268° |
| 2026-05-04 01:58 | 42.08086 | -88.51000 | 13380 ft | 207 kts | 268° |
| 2026-05-04 01:59 | 42.07925 | -88.52910 | 13734 ft | 204 kts | 269° |
| 2026-05-04 01:59 | 42.07767 | -88.54804 | 14067 ft | 202 kts | 269° |
| 2026-05-04 01:59 | 42.07611 | -88.56675 | 14403 ft | 200 kts | 269° |
| 2026-05-04 01:59 | 42.07455 | -88.58531 | 14744 ft | 199 kts | 269° |
| 2026-05-04 02:00 | 42.07301 | -88.60376 | 15084 ft | 198 kts | 269° |
| 2026-05-04 02:00 | 42.07097 | -88.62805 | 15547 ft | 196 kts | 269° |
| 2026-05-04 02:00 | 42.06994 | -88.64032 | 15785 ft | 195 kts | 269° |
| 2026-05-04 02:00 | 42.06840 | -88.65849 | 16143 ft | 194 kts | 269° |
| 2026-05-04 02:01 | 42.06685 | -88.67658 | 16508 ft | 194 kts | 270° |
| 2026-05-04 02:01 | 42.06536 | -88.69434 | 16868 ft | 193 kts | 270° |
| 2026-05-04 02:01 | 42.06383 | -88.71229 | 17238 ft | 193 kts | 270° |
| 2026-05-04 02:01 | 42.06231 | -88.73080 | 17304 ft | 206 kts | 270° |
| 2026-05-04 02:02 | 42.06067 | -88.75062 | 17305 ft | 219 kts | 269° |
| 2026-05-04 02:02 | 42.05891 | -88.77136 | 17308 ft | 228 kts | 269° |
| 2026-05-04 02:02 | 42.05706 | -88.79296 | 17309 ft | 236 kts | 269° |
| 2026-05-04 02:02 | 42.05515 | -88.81522 | 17307 ft | 242 kts | 269° |
| 2026-05-04 02:03 | 42.05320 | -88.83790 | 17306 ft | 246 kts | 269° |
| 2026-05-04 02:03 | 42.05122 | -88.86094 | 17297 ft | 250 kts | 269° |
| 2026-05-04 02:03 | 42.04922 | -88.88426 | 17294 ft | 252 kts | 269° |
| 2026-05-04 02:03 | 42.04719 | -88.90784 | 17302 ft | 254 kts | 269° |
| 2026-05-04 02:04 | 42.04512 | -88.93151 | 17293 ft | 255 kts | 268° |
| 2026-05-04 02:04 | 42.04306 | -88.95529 | 17292 ft | 257 kts | 268° |
| 2026-05-04 02:04 | 42.04099 | -88.97916 | 17295 ft | 257 kts | 268° |
| 2026-05-04 02:04 | 42.03888 | -89.00308 | 17289 ft | 258 kts | 268° |
| 2026-05-04 02:05 | 42.03680 | -89.02672 | 17293 ft | 258 kts | 268° |
| 2026-05-04 02:05 | 42.03467 | -89.05071 | 17296 ft | 258 kts | 268° |
| 2026-05-04 02:05 | 42.03263 | -89.07470 | 17295 ft | 258 kts | 269° |
| 2026-05-04 02:05 | 42.03057 | -89.09871 | 17291 ft | 259 kts | 268° |
| 2026-05-04 02:06 | 42.02841 | -89.12273 | 17290 ft | 259 kts | 268° |
| 2026-05-04 02:06 | 42.02627 | -89.14676 | 17288 ft | 259 kts | 268° |
| 2026-05-04 02:06 | 42.02412 | -89.17087 | 17288 ft | 259 kts | 268° |
| 2026-05-04 02:06 | 42.02199 | -89.19493 | 17289 ft | 259 kts | 268° |
| 2026-05-04 02:07 | 42.01985 | -89.21899 | 17285 ft | 259 kts | 268° |
| 2026-05-04 02:07 | 42.01769 | -89.24308 | 17281 ft | 259 kts | 268° |
| 2026-05-04 02:07 | 42.01554 | -89.26708 | 17283 ft | 259 kts | 268° |
| 2026-05-04 02:07 | 42.01337 | -89.29114 | 17281 ft | 259 kts | 268° |
| 2026-05-04 02:08 | 42.01122 | -89.31516 | 17282 ft | 259 kts | 268° |
| 2026-05-04 02:08 | 42.00904 | -89.33920 | 17282 ft | 259 kts | 268° |
| 2026-05-04 02:08 | 42.00688 | -89.36324 | 17284 ft | 259 kts | 268° |
| 2026-05-04 02:08 | 42.00469 | -89.38730 | 17282 ft | 259 kts | 268° |
| 2026-05-04 02:09 | 42.00250 | -89.41136 | 17278 ft | 259 kts | 268° |
| 2026-05-04 02:09 | 42.00034 | -89.43508 | 17276 ft | 259 kts | 268° |
| 2026-05-04 02:09 | 41.99814 | -89.45915 | 17276 ft | 259 kts | 268° |
| 2026-05-04 02:09 | 41.99594 | -89.48323 | 17277 ft | 260 kts | 268° |
| 2026-05-04 02:10 | 41.99372 | -89.50736 | 17279 ft | 259 kts | 268° |
| 2026-05-04 02:10 | 41.99151 | -89.53138 | 17278 ft | 259 kts | 268° |
| 2026-05-04 02:10 | 41.98929 | -89.55551 | 17281 ft | 260 kts | 268° |
| 2026-05-04 02:10 | 41.98707 | -89.57959 | 17279 ft | 260 kts | 268° |
| 2026-05-04 02:11 | 41.98483 | -89.60367 | 17281 ft | 259 kts | 268° |
| 2026-05-04 02:11 | 41.98261 | -89.62768 | 17279 ft | 259 kts | 268° |
| 2026-05-04 02:11 | 41.98038 | -89.65167 | 17279 ft | 259 kts | 268° |
| 2026-05-04 02:11 | 41.97814 | -89.67567 | 17279 ft | 259 kts | 268° |
| 2026-05-04 02:12 | 41.97589 | -89.69969 | 17281 ft | 259 kts | 268° |
| 2026-05-04 02:12 | 41.97364 | -89.72372 | 17280 ft | 259 kts | 268° |
| 2026-05-04 02:12 | 41.97138 | -89.74781 | 17281 ft | 259 kts | 268° |
| 2026-05-04 02:12 | 41.96911 | -89.77184 | 17280 ft | 259 kts | 268° |
| 2026-05-04 02:13 | 41.96686 | -89.79581 | 17279 ft | 259 kts | 268° |
| 2026-05-04 02:13 | 41.96461 | -89.81956 | 17277 ft | 259 kts | 268° |
| 2026-05-04 02:13 | 41.96233 | -89.84358 | 17278 ft | 259 kts | 268° |
| 2026-05-04 02:13 | 41.96005 | -89.86764 | 17278 ft | 259 kts | 268° |
| 2026-05-04 02:14 | 41.95776 | -89.89164 | 17280 ft | 259 kts | 268° |
| 2026-05-04 02:14 | 41.95548 | -89.91564 | 17279 ft | 259 kts | 268° |
| 2026-05-04 02:14 | 41.95318 | -89.93965 | 17278 ft | 259 kts | 268° |
| 2026-05-04 02:14 | 41.95088 | -89.96365 | 17280 ft | 259 kts | 268° |
| 2026-05-04 02:15 | 41.94858 | -89.98765 | 17283 ft | 259 kts | 268° |
| 2026-05-04 02:15 | 41.94627 | -90.01161 | 17279 ft | 259 kts | 268° |
| 2026-05-04 02:15 | 41.94395 | -90.03562 | 17278 ft | 259 kts | 268° |
| 2026-05-04 02:15 | 41.94163 | -90.05965 | 17278 ft | 259 kts | 268° |
| 2026-05-04 02:16 | 41.93931 | -90.08360 | 17276 ft | 259 kts | 268° |
| 2026-05-04 02:16 | 41.93700 | -90.10734 | 17277 ft | 259 kts | 268° |
| 2026-05-04 02:16 | 41.93467 | -90.13135 | 17277 ft | 259 kts | 268° |
| 2026-05-04 02:16 | 41.93233 | -90.15535 | 17277 ft | 259 kts | 268° |
| 2026-05-04 02:17 | 41.92998 | -90.17934 | 17278 ft | 259 kts | 268° |
| 2026-05-04 02:17 | 41.92762 | -90.20338 | 17293 ft | 259 kts | 268° |
| 2026-05-04 02:17 | 41.92527 | -90.22736 | 17292 ft | 259 kts | 268° |
| 2026-05-04 02:17 | 41.92291 | -90.25130 | 17294 ft | 259 kts | 268° |
| 2026-05-04 02:18 | 41.92055 | -90.27530 | 17294 ft | 259 kts | 268° |
| 2026-05-04 02:18 | 41.91817 | -90.29935 | 17296 ft | 259 kts | 268° |
| 2026-05-04 02:18 | 41.91579 | -90.32336 | 17294 ft | 259 kts | 268° |
| 2026-05-04 02:18 | 41.91341 | -90.34738 | 17296 ft | 260 kts | 267° |
| 2026-05-04 02:19 | 41.91101 | -90.37141 | 17295 ft | 260 kts | 268° |
| 2026-05-04 02:19 | 41.90861 | -90.39546 | 17298 ft | 259 kts | 267° |
| 2026-05-04 02:19 | 41.90621 | -90.41944 | 17297 ft | 259 kts | 267° |
| 2026-05-04 02:19 | 41.90381 | -90.44343 | 17294 ft | 259 kts | 267° |
| 2026-05-04 02:20 | 41.90140 | -90.46743 | 17295 ft | 259 kts | 267° |
| 2026-05-04 02:20 | 41.89900 | -90.49141 | 17294 ft | 259 kts | 267° |
| 2026-05-04 02:20 | 41.89657 | -90.51540 | 17292 ft | 259 kts | 267° |
| 2026-05-04 02:20 | 41.89415 | -90.53937 | 17293 ft | 259 kts | 267° |
| 2026-05-04 02:21 | 41.89172 | -90.56341 | 17290 ft | 259 kts | 267° |
| 2026-05-04 02:21 | 41.88929 | -90.58735 | 17291 ft | 259 kts | 267° |
| 2026-05-04 02:21 | 41.88686 | -90.61134 | 17285 ft | 259 kts | 267° |
| 2026-05-04 02:21 | 41.88444 | -90.63501 | 17285 ft | 259 kts | 267° |
| 2026-05-04 02:22 | 41.88196 | -90.65931 | 17283 ft | 259 kts | 267° |
| 2026-05-04 02:22 | 41.87955 | -90.68296 | 17283 ft | 259 kts | 267° |
| 2026-05-04 02:22 | 41.87709 | -90.70697 | 17281 ft | 259 kts | 267° |
| 2026-05-04 02:22 | 41.87461 | -90.73096 | 17282 ft | 259 kts | 267° |
| 2026-05-04 02:23 | 41.87215 | -90.75494 | 17283 ft | 259 kts | 267° |
| 2026-05-04 02:23 | 41.86967 | -90.77890 | 17286 ft | 259 kts | 267° |
| 2026-05-04 02:23 | 41.86720 | -90.80284 | 17280 ft | 259 kts | 267° |
| 2026-05-04 02:23 | 41.86472 | -90.82678 | 17282 ft | 259 kts | 267° |
| 2026-05-04 02:24 | 41.86224 | -90.85072 | 17282 ft | 259 kts | 267° |
| 2026-05-04 02:24 | 41.85975 | -90.87471 | 17277 ft | 259 kts | 266° |
| 2026-05-04 02:24 | 41.85725 | -90.89864 | 17281 ft | 259 kts | 267° |
| 2026-05-04 02:24 | 41.85475 | -90.92258 | 17283 ft | 259 kts | 267° |
| 2026-05-04 02:25 | 41.85224 | -90.94651 | 17281 ft | 259 kts | 267° |
| 2026-05-04 02:25 | 41.84973 | -90.97044 | 17288 ft | 259 kts | 267° |
| 2026-05-04 02:25 | 41.84722 | -90.99438 | 17287 ft | 259 kts | 267° |
| 2026-05-04 02:25 | 41.84473 | -91.01806 | 17288 ft | 259 kts | 266° |
| 2026-05-04 02:26 | 41.84219 | -91.04206 | 17288 ft | 259 kts | 266° |
| 2026-05-04 02:26 | 41.83964 | -91.06602 | 17288 ft | 260 kts | 267° |
| 2026-05-04 02:26 | 41.83712 | -91.08999 | 17286 ft | 260 kts | 266° |
| 2026-05-04 02:26 | 41.83458 | -91.11400 | 17291 ft | 260 kts | 266° |
| 2026-05-04 02:27 | 41.83201 | -91.13796 | 17291 ft | 260 kts | 266° |
| 2026-05-04 02:27 | 41.82946 | -91.16190 | 17293 ft | 259 kts | 266° |
| 2026-05-04 02:27 | 41.82692 | -91.18576 | 17293 ft | 259 kts | 266° |
| 2026-05-04 02:27 | 41.82435 | -91.20971 | 17295 ft | 259 kts | 266° |
| 2026-05-04 02:28 | 41.82179 | -91.23361 | 17300 ft | 259 kts | 266° |
| 2026-05-04 02:28 | 41.81922 | -91.25751 | 17302 ft | 259 kts | 266° |
| 2026-05-04 02:28 | 41.81664 | -91.28140 | 17303 ft | 259 kts | 266° |
| 2026-05-04 02:28 | 41.81407 | -91.30531 | 17300 ft | 259 kts | 266° |
| 2026-05-04 02:29 | 41.81149 | -91.32922 | 17304 ft | 259 kts | 266° |
| 2026-05-04 02:29 | 41.80892 | -91.35281 | 17307 ft | 259 kts | 266° |
| 2026-05-04 02:29 | 41.80632 | -91.37675 | 17304 ft | 259 kts | 266° |
| 2026-05-04 02:29 | 41.80373 | -91.40065 | 17299 ft | 259 kts | 266° |
| 2026-05-04 02:30 | 41.80112 | -91.42460 | 17311 ft | 259 kts | 266° |
| 2026-05-04 02:30 | 41.79851 | -91.44844 | 17310 ft | 259 kts | 266° |
| 2026-05-04 02:30 | 41.79589 | -91.47239 | 17310 ft | 259 kts | 266° |
| 2026-05-04 02:30 | 41.79327 | -91.49629 | 17311 ft | 259 kts | 266° |
| 2026-05-04 02:31 | 41.79065 | -91.52017 | 17310 ft | 259 kts | 266° |
| 2026-05-04 02:31 | 41.78801 | -91.54408 | 17312 ft | 259 kts | 266° |
| 2026-05-04 02:31 | 41.78539 | -91.56791 | 17296 ft | 259 kts | 266° |
| 2026-05-04 02:31 | 41.78279 | -91.59143 | 17294 ft | 259 kts | 266° |
| 2026-05-04 02:32 | 41.78016 | -91.61524 | 17296 ft | 258 kts | 266° |
| 2026-05-04 02:32 | 41.77751 | -91.63904 | 17295 ft | 258 kts | 266° |
| 2026-05-04 02:32 | 41.77487 | -91.66285 | 17297 ft | 258 kts | 266° |
| 2026-05-04 02:32 | 41.77221 | -91.68670 | 17295 ft | 258 kts | 266° |
| 2026-05-04 02:33 | 41.76955 | -91.71050 | 17295 ft | 258 kts | 266° |
| 2026-05-04 02:33 | 41.76689 | -91.73430 | 17295 ft | 258 kts | 266° |
| 2026-05-04 02:33 | 41.76423 | -91.75809 | 17295 ft | 258 kts | 266° |
| 2026-05-04 02:33 | 41.76156 | -91.78181 | 17287 ft | 258 kts | 266° |
| 2026-05-04 02:34 | 41.75890 | -91.80548 | 17298 ft | 257 kts | 266° |
| 2026-05-04 02:34 | 41.75625 | -91.82909 | 17297 ft | 256 kts | 266° |
| 2026-05-04 02:34 | 41.75360 | -91.85264 | 17295 ft | 256 kts | 266° |
| 2026-05-04 02:34 | 41.75093 | -91.87620 | 17298 ft | 255 kts | 266° |
| 2026-05-04 02:35 | 41.74827 | -91.89968 | 17297 ft | 255 kts | 266° |
| 2026-05-04 02:35 | 41.74564 | -91.92279 | 17300 ft | 254 kts | 266° |
| 2026-05-04 02:35 | 41.74296 | -91.94644 | 17298 ft | 253 kts | 266° |
| 2026-05-04 02:35 | 41.74033 | -91.96949 | 17298 ft | 253 kts | 266° |
| 2026-05-04 02:36 | 41.73768 | -91.99275 | 17304 ft | 253 kts | 266° |
| 2026-05-04 02:36 | 41.73502 | -92.01595 | 17304 ft | 253 kts | 266° |
| 2026-05-04 02:36 | 41.73235 | -92.03925 | 17304 ft | 253 kts | 266° |
| 2026-05-04 02:36 | 41.72968 | -92.06249 | 17305 ft | 253 kts | 266° |
| 2026-05-04 02:37 | 41.72701 | -92.08573 | 17301 ft | 252 kts | 266° |
| 2026-05-04 02:37 | 41.72434 | -92.10895 | 17303 ft | 252 kts | 267° |
| 2026-05-04 02:37 | 41.72169 | -92.13208 | 17300 ft | 252 kts | 266° |
| 2026-05-04 02:37 | 41.71901 | -92.15531 | 17307 ft | 252 kts | 266° |
| 2026-05-04 02:38 | 41.71631 | -92.17843 | 17307 ft | 252 kts | 266° |
| 2026-05-04 02:38 | 41.71361 | -92.20160 | 17306 ft | 252 kts | 266° |
| 2026-05-04 02:38 | 41.71093 | -92.22483 | 17305 ft | 252 kts | 266° |
| 2026-05-04 02:38 | 41.70823 | -92.24801 | 17307 ft | 252 kts | 266° |
| 2026-05-04 02:39 | 41.70553 | -92.27118 | 17312 ft | 252 kts | 266° |
| 2026-05-04 02:39 | 41.70281 | -92.29433 | 17307 ft | 252 kts | 266° |
| 2026-05-04 02:39 | 41.70011 | -92.31742 | 17317 ft | 251 kts | 266° |
| 2026-05-04 02:39 | 41.69741 | -92.34048 | 17318 ft | 251 kts | 266° |
| 2026-05-04 02:40 | 41.69469 | -92.36357 | 17321 ft | 251 kts | 266° |
| 2026-05-04 02:40 | 41.69199 | -92.38659 | 17319 ft | 251 kts | 266° |
| 2026-05-04 02:40 | 41.68927 | -92.40968 | 17319 ft | 252 kts | 266° |
| 2026-05-04 02:40 | 41.68655 | -92.43265 | 17326 ft | 254 kts | 266° |
| 2026-05-04 02:41 | 41.68374 | -92.45646 | 17331 ft | 256 kts | 266° |
| 2026-05-04 02:41 | 41.68099 | -92.47973 | 17332 ft | 256 kts | 266° |
| 2026-05-04 02:41 | 41.67818 | -92.50333 | 17331 ft | 257 kts | 265° |
| 2026-05-04 02:41 | 41.67537 | -92.52692 | 17335 ft | 257 kts | 265° |
| 2026-05-04 02:42 | 41.67255 | -92.55069 | 17191 ft | 262 kts | 265° |
| 2026-05-04 02:42 | 41.66967 | -92.57524 | 16796 ft | 272 kts | 265° |
| 2026-05-04 02:42 | 41.66666 | -92.60056 | 16414 ft | 279 kts | 265° |
| 2026-05-04 02:42 | 41.66355 | -92.62636 | 16031 ft | 283 kts | 265° |
| 2026-05-04 02:43 | 41.66040 | -92.65253 | 15651 ft | 286 kts | 265° |
| 2026-05-04 02:43 | 41.65723 | -92.67885 | 15267 ft | 287 kts | 265° |
| 2026-05-04 02:43 | 41.65409 | -92.70500 | 14897 ft | 283 kts | 265° |
| 2026-05-04 02:43 | 41.65095 | -92.73084 | 14531 ft | 281 kts | 264° |
| 2026-05-04 02:44 | 41.64783 | -92.75652 | 14167 ft | 279 kts | 264° |
| 2026-05-04 02:44 | 41.64474 | -92.78208 | 13808 ft | 278 kts | 264° |
| 2026-05-04 02:44 | 41.64164 | -92.80756 | 13427 ft | 277 kts | 264° |
| 2026-05-04 02:44 | 41.63857 | -92.83268 | 13015 ft | 277 kts | 264° |
| 2026-05-04 02:45 | 41.63549 | -92.85806 | 12621 ft | 276 kts | 264° |
| 2026-05-04 02:45 | 41.63240 | -92.88341 | 12235 ft | 276 kts | 264° |
| 2026-05-04 02:45 | 41.62927 | -92.90881 | 11848 ft | 276 kts | 264° |
| 2026-05-04 02:45 | 41.62617 | -92.93414 | 11470 ft | 275 kts | 264° |
| 2026-05-04 02:46 | 41.62304 | -92.95961 | 11096 ft | 281 kts | 263° |
| 2026-05-04 02:46 | 41.61985 | -92.98553 | 10728 ft | 284 kts | 263° |
| 2026-05-04 02:46 | 41.61774 | -93.00279 | 10487 ft | 285 kts | 263° |
| 2026-05-04 02:46 | 41.61450 | -93.02890 | 10336 ft | 280 kts | 263° |
| 2026-05-04 02:47 | 41.61133 | -93.05422 | 10326 ft | 273 kts | 263° |
| 2026-05-04 02:47 | 41.60728 | -93.08693 | 10322 ft | 266 kts | 263° |
| 2026-05-04 02:47 | 41.60522 | -93.10337 | 10322 ft | 264 kts | 263° |
| 2026-05-04 02:47 | 41.60125 | -93.13521 | 10322 ft | 261 kts | 263° |
| 2026-05-04 02:48 | 41.59924 | -93.15137 | 10326 ft | 260 kts | 263° |
| 2026-05-04 02:48 | 41.59630 | -93.17491 | 10324 ft | 259 kts | 263° |
| 2026-05-04 02:48 | 41.59333 | -93.19864 | 10324 ft | 259 kts | 263° |
| 2026-05-04 02:48 | 41.59036 | -93.22237 | 10326 ft | 258 kts | 263° |
| 2026-05-04 02:49 | 41.58747 | -93.24616 | 10195 ft | 263 kts | 264° |
| 2026-05-04 02:49 | 41.58678 | -93.27063 | 9996 ft | 266 kts | 276° |
| 2026-05-04 02:49 | 41.58904 | -93.29530 | 9786 ft | 269 kts | 279° |
| 2026-05-04 02:49 | 41.59153 | -93.32020 | 9567 ft | 272 kts | 279° |
| 2026-05-04 02:50 | 41.59405 | -93.34529 | 9327 ft | 273 kts | 279° |
| 2026-05-04 02:50 | 41.59660 | -93.37007 | 9087 ft | 255 kts | 279° |
| 2026-05-04 02:50 | 41.60178 | -93.39144 | 8867 ft | 234 kts | 297° |
| 2026-05-04 02:50 | 41.60981 | -93.40964 | 8630 ft | 222 kts | 301° |
| 2026-05-04 02:51 | 41.61790 | -93.42691 | 8392 ft | 216 kts | 302° |
| 2026-05-04 02:51 | 41.62578 | -93.44350 | 8160 ft | 212 kts | 302° |
| 2026-05-04 02:51 | 41.63370 | -93.46013 | 7927 ft | 209 kts | 302° |
| 2026-05-04 02:51 | 41.64078 | -93.47692 | 7686 ft | 207 kts | 288° |
| 2026-05-04 02:52 | 41.64110 | -93.49576 | 7313 ft | 206 kts | 256° |
| 2026-05-04 02:52 | 41.63540 | -93.51299 | 6941 ft | 203 kts | 246° |
| 2026-05-04 02:52 | 41.62889 | -93.52953 | 6574 ft | 198 kts | 245° |
| 2026-05-04 02:52 | 41.62209 | -93.54531 | 6197 ft | 196 kts | 235° |
| 2026-05-04 02:53 | 41.61182 | -93.55790 | 5603 ft | 204 kts | 222° |
| 2026-05-04 02:53 | 41.60053 | -93.56945 | 5026 ft | 202 kts | 221° |
| 2026-05-04 02:53 | 41.58942 | -93.58065 | 4443 ft | 198 kts | 221° |
| 2026-05-04 02:53 | 41.57808 | -93.59121 | 3655 ft | 204 kts | 217° |
| 2026-05-04 02:54 | 41.56648 | -93.60258 | 3052 ft | 195 kts | 228° |
| 2026-05-04 02:54 | 41.55914 | -93.61313 | 2860 ft | 123 kts | 232° |
| 2026-05-04 02:54 | 41.55414 | -93.62060 | 2577 ft | 95 kts | 252° |
| 2026-05-04 02:54 | 41.55044 | -93.62742 | 2145 ft | 94 kts | 251° |
| 2026-05-04 02:55 | 41.54369 | -93.64051 | 1491 ft | 83 kts | 236° |
| 2026-05-04 02:55 | 41.54010 | -93.64672 | 1160 ft | 86 kts | 235° |
| 2026-05-04 02:55 | 41.53664 | -93.65306 | 927 ft | 82 kts | 235° |
| 2026-05-04 02:56 | 41.53352 | -93.65866 | 914 ft | 67 kts | 235° |
| 2026-05-04 02:56 | 41.53115 | -93.66301 | 909 ft | 43 kts | 222° |
| 2026-05-04 02:56 | 41.53051 | -93.66299 | 909 ft | 0 kts | 202° |